sensor_id;sensor_type;location;lat;lon;timestamp;P1;durP1;ratioP1;P2;durP2;ratioP2
24743;SDS011;12844;52.110;5.548;2023-11-19T00:00:16;4.20;;;2.60;;
24743;SDS011;12844;52.110;5.548;2023-11-19T00:02:42;4.00;;;2.35;;
24743;SDS011;12844;52.110;5.548;2023-11-19T00:05:08;3.47;;;2.25;;
24743;SDS011;12844;52.110;5.548;2023-11-19T00:07:36;3.60;;;2.22;;
24743;SDS011;12844;52.110;5.548;2023-11-19T00:10:02;3.00;;;2.13;;
24743;SDS011;12844;52.110;5.548;2023-11-19T00:12:32;2.63;;;2.30;;
24743;SDS011;12844;52.110;5.548;2023-11-19T00:14:57;3.88;;;2.10;;
24743;SDS011;12844;52.110;5.548;2023-11-19T00:17:23;2.88;;;1.92;;
24743;SDS011;12844;52.110;5.548;2023-11-19T00:19:48;2.90;;;2.17;;
24743;SDS011;12844;52.110;5.548;2023-11-19T00:22:16;2.85;;;1.90;;
24743;SDS011;12844;52.110;5.548;2023-11-19T00:24:42;4.25;;;2.42;;
24743;SDS011;12844;52.110;5.548;2023-11-19T00:27:07;3.25;;;2.08;;
24743;SDS011;12844;52.110;5.548;2023-11-19T00:29:33;3.67;;;2.03;;
24743;SDS011;12844;52.110;5.548;2023-11-19T00:31:58;3.78;;;2.30;;
24743;SDS011;12844;52.110;5.548;2023-11-19T00:34:24;2.65;;;2.03;;
24743;SDS011;12844;52.110;5.548;2023-11-19T00:36:50;3.33;;;1.90;;
24743;SDS011;12844;52.110;5.548;2023-11-19T00:39:15;4.45;;;2.33;;
24743;SDS011;12844;52.110;5.548;2023-11-19T00:41:42;2.78;;;1.90;;
24743;SDS011;12844;52.110;5.548;2023-11-19T00:44:08;2.67;;;1.98;;
24743;SDS011;12844;52.110;5.548;2023-11-19T00:46:33;4.18;;;2.20;;
24743;SDS011;12844;52.110;5.548;2023-11-19T00:48:59;2.58;;;1.98;;
24743;SDS011;12844;52.110;5.548;2023-11-19T00:51:26;3.72;;;1.90;;
24743;SDS011;12844;52.110;5.548;2023-11-19T00:53:51;2.63;;;1.95;;
24743;SDS011;12844;52.110;5.548;2023-11-19T00:56:20;2.58;;;1.85;;
24743;SDS011;12844;52.110;5.548;2023-11-19T00:58:46;3.55;;;1.80;;
24743;SDS011;12844;52.110;5.548;2023-11-19T01:01:12;3.58;;;1.75;;
24743;SDS011;12844;52.110;5.548;2023-11-19T01:03:38;3.40;;;1.80;;
24743;SDS011;12844;52.110;5.548;2023-11-19T01:06:04;4.30;;;2.10;;
24743;SDS011;12844;52.110;5.548;2023-11-19T01:08:29;2.97;;;1.90;;
24743;SDS011;12844;52.110;5.548;2023-11-19T01:10:55;3.92;;;1.83;;
24743;SDS011;12844;52.110;5.548;2023-11-19T01:13:21;3.88;;;1.90;;
24743;SDS011;12844;52.110;5.548;2023-11-19T01:15:46;3.60;;;2.00;;
24743;SDS011;12844;52.110;5.548;2023-11-19T01:18:12;4.00;;;1.80;;
24743;SDS011;12844;52.110;5.548;2023-11-19T01:20:38;5.93;;;2.10;;
24743;SDS011;12844;52.110;5.548;2023-11-19T01:23:04;3.95;;;2.03;;
24743;SDS011;12844;52.110;5.548;2023-11-19T01:25:30;2.58;;;1.58;;
24743;SDS011;12844;52.110;5.548;2023-11-19T01:27:55;4.35;;;2.00;;
24743;SDS011;12844;52.110;5.548;2023-11-19T01:30:23;1.90;;;1.60;;
24743;SDS011;12844;52.110;5.548;2023-11-19T01:32:49;4.00;;;1.83;;
24743;SDS011;12844;52.110;5.548;2023-11-19T01:35:15;3.85;;;1.95;;
24743;SDS011;12844;52.110;5.548;2023-11-19T01:37:40;3.50;;;1.90;;
24743;SDS011;12844;52.110;5.548;2023-11-19T01:40:06;4.13;;;1.85;;
24743;SDS011;12844;52.110;5.548;2023-11-19T01:42:36;5.22;;;1.98;;
24743;SDS011;12844;52.110;5.548;2023-11-19T01:45:03;4.18;;;1.80;;
24743;SDS011;12844;52.110;5.548;2023-11-19T01:47:31;3.75;;;1.80;;
24743;SDS011;12844;52.110;5.548;2023-11-19T01:49:57;4.15;;;1.70;;
24743;SDS011;12844;52.110;5.548;2023-11-19T01:52:24;3.90;;;1.70;;
24743;SDS011;12844;52.110;5.548;2023-11-19T01:54:51;3.72;;;1.80;;
24743;SDS011;12844;52.110;5.548;2023-11-19T01:57:18;3.67;;;1.58;;
24743;SDS011;12844;52.110;5.548;2023-11-19T01:59:46;7.07;;;1.80;;
24743;SDS011;12844;52.110;5.548;2023-11-19T02:02:13;3.70;;;1.58;;
24743;SDS011;12844;52.110;5.548;2023-11-19T02:04:38;3.75;;;1.40;;
24743;SDS011;12844;52.110;5.548;2023-11-19T02:07:05;6.78;;;1.60;;
24743;SDS011;12844;52.110;5.548;2023-11-19T02:09:31;5.70;;;1.85;;
24743;SDS011;12844;52.110;5.548;2023-11-19T02:11:57;5.30;;;1.90;;
24743;SDS011;12844;52.110;5.548;2023-11-19T02:14:24;4.05;;;1.63;;
24743;SDS011;12844;52.110;5.548;2023-11-19T02:16:50;3.75;;;1.50;;
24743;SDS011;12844;52.110;5.548;2023-11-19T02:19:19;4.55;;;1.90;;
24743;SDS011;12844;52.110;5.548;2023-11-19T02:21:45;5.18;;;1.88;;
24743;SDS011;12844;52.110;5.548;2023-11-19T02:24:10;4.88;;;1.83;;
24743;SDS011;12844;52.110;5.548;2023-11-19T02:26:39;5.18;;;1.83;;
24743;SDS011;12844;52.110;5.548;2023-11-19T02:29:11;7.13;;;2.00;;
24743;SDS011;12844;52.110;5.548;2023-11-19T02:31:38;4.55;;;1.88;;
24743;SDS011;12844;52.110;5.548;2023-11-19T02:34:03;7.25;;;2.05;;
24743;SDS011;12844;52.110;5.548;2023-11-19T02:36:31;7.65;;;2.30;;
24743;SDS011;12844;52.110;5.548;2023-11-19T02:38:57;4.57;;;2.03;;
24743;SDS011;12844;52.110;5.548;2023-11-19T02:41:23;4.00;;;1.60;;
24743;SDS011;12844;52.110;5.548;2023-11-19T02:43:49;4.65;;;1.70;;
24743;SDS011;12844;52.110;5.548;2023-11-19T02:46:14;6.32;;;1.88;;
24743;SDS011;12844;52.110;5.548;2023-11-19T02:48:42;5.85;;;1.92;;
24743;SDS011;12844;52.110;5.548;2023-11-19T02:51:09;4.97;;;1.83;;
24743;SDS011;12844;52.110;5.548;2023-11-19T02:53:35;6.32;;;1.80;;
24743;SDS011;12844;52.110;5.548;2023-11-19T02:56:02;7.32;;;2.10;;
24743;SDS011;12844;52.110;5.548;2023-11-19T02:58:36;6.22;;;1.98;;
24743;SDS011;12844;52.110;5.548;2023-11-19T03:01:02;5.07;;;2.03;;
24743;SDS011;12844;52.110;5.548;2023-11-19T03:03:37;6.07;;;2.00;;
24743;SDS011;12844;52.110;5.548;2023-11-19T03:06:05;7.40;;;2.22;;
24743;SDS011;12844;52.110;5.548;2023-11-19T03:08:32;6.45;;;1.88;;
24743;SDS011;12844;52.110;5.548;2023-11-19T03:10:59;7.82;;;2.20;;
24743;SDS011;12844;52.110;5.548;2023-11-19T03:13:25;5.70;;;1.85;;
24743;SDS011;12844;52.110;5.548;2023-11-19T03:15:51;6.03;;;2.00;;
24743;SDS011;12844;52.110;5.548;2023-11-19T03:18:18;4.30;;;1.85;;
24743;SDS011;12844;52.110;5.548;2023-11-19T03:20:45;5.95;;;2.00;;
24743;SDS011;12844;52.110;5.548;2023-11-19T03:23:11;5.15;;;2.20;;
24743;SDS011;12844;52.110;5.548;2023-11-19T03:25:37;6.18;;;1.70;;
24743;SDS011;12844;52.110;5.548;2023-11-19T03:28:03;8.43;;;2.20;;
24743;SDS011;12844;52.110;5.548;2023-11-19T03:30:29;5.32;;;1.77;;
24743;SDS011;12844;52.110;5.548;2023-11-19T03:32:55;5.05;;;2.05;;
24743;SDS011;12844;52.110;5.548;2023-11-19T03:35:22;4.60;;;1.88;;
24743;SDS011;12844;52.110;5.548;2023-11-19T03:37:49;7.10;;;1.92;;
24743;SDS011;12844;52.110;5.548;2023-11-19T03:40:16;5.43;;;1.98;;
24743;SDS011;12844;52.110;5.548;2023-11-19T03:42:42;6.78;;;1.95;;
24743;SDS011;12844;52.110;5.548;2023-11-19T03:45:08;6.00;;;1.83;;
24743;SDS011;12844;52.110;5.548;2023-11-19T03:47:34;6.75;;;1.83;;
24743;SDS011;12844;52.110;5.548;2023-11-19T03:50:00;5.95;;;2.03;;
24743;SDS011;12844;52.110;5.548;2023-11-19T03:52:27;6.57;;;2.08;;
24743;SDS011;12844;52.110;5.548;2023-11-19T03:54:53;7.60;;;2.08;;
24743;SDS011;12844;52.110;5.548;2023-11-19T03:57:20;6.32;;;2.05;;
24743;SDS011;12844;52.110;5.548;2023-11-19T03:59:46;7.80;;;2.33;;
24743;SDS011;12844;52.110;5.548;2023-11-19T04:02:11;6.35;;;1.98;;
24743;SDS011;12844;52.110;5.548;2023-11-19T04:04:37;6.80;;;1.80;;
24743;SDS011;12844;52.110;5.548;2023-11-19T04:07:04;7.97;;;2.17;;
24743;SDS011;12844;52.110;5.548;2023-11-19T04:09:30;7.47;;;2.00;;
24743;SDS011;12844;52.110;5.548;2023-11-19T04:11:57;7.38;;;2.30;;
24743;SDS011;12844;52.110;5.548;2023-11-19T04:14:23;7.90;;;1.90;;
24743;SDS011;12844;52.110;5.548;2023-11-19T04:16:49;7.28;;;2.00;;
24743;SDS011;12844;52.110;5.548;2023-11-19T04:19:16;9.85;;;2.10;;
24743;SDS011;12844;52.110;5.548;2023-11-19T04:21:41;8.48;;;2.60;;
24743;SDS011;12844;52.110;5.548;2023-11-19T04:24:08;8.48;;;2.28;;
24743;SDS011;12844;52.110;5.548;2023-11-19T04:26:34;7.43;;;2.08;;
24743;SDS011;12844;52.110;5.548;2023-11-19T04:28:59;7.25;;;1.95;;
24743;SDS011;12844;52.110;5.548;2023-11-19T04:31:28;10.20;;;2.10;;
24743;SDS011;12844;52.110;5.548;2023-11-19T04:33:56;7.82;;;2.15;;
24743;SDS011;12844;52.110;5.548;2023-11-19T04:36:22;6.38;;;2.13;;
24743;SDS011;12844;52.110;5.548;2023-11-19T04:38:49;6.38;;;2.33;;
24743;SDS011;12844;52.110;5.548;2023-11-19T04:41:15;8.73;;;2.33;;
24743;SDS011;12844;52.110;5.548;2023-11-19T04:43:41;6.63;;;2.00;;
24743;SDS011;12844;52.110;5.548;2023-11-19T04:46:06;6.43;;;2.00;;
24743;SDS011;12844;52.110;5.548;2023-11-19T04:48:34;8.82;;;2.55;;
24743;SDS011;12844;52.110;5.548;2023-11-19T04:51:00;6.65;;;2.25;;
24743;SDS011;12844;52.110;5.548;2023-11-19T04:53:25;7.43;;;2.33;;
24743;SDS011;12844;52.110;5.548;2023-11-19T04:55:51;8.52;;;2.15;;
24743;SDS011;12844;52.110;5.548;2023-11-19T04:58:17;5.97;;;1.98;;
24743;SDS011;12844;52.110;5.548;2023-11-19T05:00:42;8.18;;;2.15;;
24743;SDS011;12844;52.110;5.548;2023-11-19T05:03:08;9.57;;;2.40;;
24743;SDS011;12844;52.110;5.548;2023-11-19T05:05:34;8.25;;;2.03;;
24743;SDS011;12844;52.110;5.548;2023-11-19T05:07:59;10.52;;;2.13;;
24743;SDS011;12844;52.110;5.548;2023-11-19T05:10:25;7.93;;;2.20;;
24743;SDS011;12844;52.110;5.548;2023-11-19T05:12:51;8.73;;;2.45;;
24743;SDS011;12844;52.110;5.548;2023-11-19T05:15:17;8.70;;;2.13;;
24743;SDS011;12844;52.110;5.548;2023-11-19T05:17:42;6.57;;;2.05;;
24743;SDS011;12844;52.110;5.548;2023-11-19T05:20:08;8.15;;;2.10;;
24743;SDS011;12844;52.110;5.548;2023-11-19T05:22:38;7.80;;;2.28;;
24743;SDS011;12844;52.110;5.548;2023-11-19T05:25:08;5.85;;;1.92;;
24743;SDS011;12844;52.110;5.548;2023-11-19T05:27:34;9.45;;;2.50;;
24743;SDS011;12844;52.110;5.548;2023-11-19T05:30:01;6.57;;;1.88;;
24743;SDS011;12844;52.110;5.548;2023-11-19T05:32:27;10.65;;;3.05;;
24743;SDS011;12844;52.110;5.548;2023-11-19T05:34:53;8.02;;;1.88;;
24743;SDS011;12844;52.110;5.548;2023-11-19T05:37:18;6.90;;;2.17;;
24743;SDS011;12844;52.110;5.548;2023-11-19T05:39:44;7.45;;;2.28;;
24743;SDS011;12844;52.110;5.548;2023-11-19T05:42:11;9.15;;;2.25;;
24743;SDS011;12844;52.110;5.548;2023-11-19T05:44:37;8.10;;;2.40;;
24743;SDS011;12844;52.110;5.548;2023-11-19T05:47:03;9.82;;;2.58;;
24743;SDS011;12844;52.110;5.548;2023-11-19T05:49:29;7.90;;;2.17;;
24743;SDS011;12844;52.110;5.548;2023-11-19T05:51:54;6.30;;;1.90;;
24743;SDS011;12844;52.110;5.548;2023-11-19T05:54:21;7.80;;;2.30;;
24743;SDS011;12844;52.110;5.548;2023-11-19T05:56:47;8.70;;;2.13;;
24743;SDS011;12844;52.110;5.548;2023-11-19T05:59:14;8.18;;;2.42;;
24743;SDS011;12844;52.110;5.548;2023-11-19T06:01:42;7.10;;;2.20;;
24743;SDS011;12844;52.110;5.548;2023-11-19T06:04:08;9.73;;;2.20;;
24743;SDS011;12844;52.110;5.548;2023-11-19T06:06:34;8.38;;;2.22;;
24743;SDS011;12844;52.110;5.548;2023-11-19T06:08:59;9.27;;;2.40;;
24743;SDS011;12844;52.110;5.548;2023-11-19T06:11:27;6.80;;;2.05;;
24743;SDS011;12844;52.110;5.548;2023-11-19T06:13:52;8.10;;;3.00;;
24743;SDS011;12844;52.110;5.548;2023-11-19T06:16:18;8.05;;;2.50;;
24743;SDS011;12844;52.110;5.548;2023-11-19T06:18:44;7.65;;;1.92;;
24743;SDS011;12844;52.110;5.548;2023-11-19T06:21:10;7.90;;;2.25;;
24743;SDS011;12844;52.110;5.548;2023-11-19T06:23:36;13.52;;;2.67;;
24743;SDS011;12844;52.110;5.548;2023-11-19T06:26:02;9.18;;;2.28;;
24743;SDS011;12844;52.110;5.548;2023-11-19T06:28:28;7.88;;;2.13;;
24743;SDS011;12844;52.110;5.548;2023-11-19T06:30:53;8.85;;;2.40;;
24743;SDS011;12844;52.110;5.548;2023-11-19T06:33:19;7.28;;;2.20;;
24743;SDS011;12844;52.110;5.548;2023-11-19T06:35:45;8.15;;;2.53;;
24743;SDS011;12844;52.110;5.548;2023-11-19T06:38:10;7.22;;;2.10;;
24743;SDS011;12844;52.110;5.548;2023-11-19T06:40:36;8.25;;;2.00;;
24743;SDS011;12844;52.110;5.548;2023-11-19T06:43:02;6.80;;;2.00;;
24743;SDS011;12844;52.110;5.548;2023-11-19T06:45:33;9.90;;;2.03;;
24743;SDS011;12844;52.110;5.548;2023-11-19T06:48:02;9.57;;;2.00;;
24743;SDS011;12844;52.110;5.548;2023-11-19T06:50:31;7.40;;;2.20;;
24743;SDS011;12844;52.110;5.548;2023-11-19T06:52:57;6.85;;;1.98;;
24743;SDS011;12844;52.110;5.548;2023-11-19T06:55:23;9.35;;;2.17;;
24743;SDS011;12844;52.110;5.548;2023-11-19T06:57:48;6.95;;;2.05;;
24743;SDS011;12844;52.110;5.548;2023-11-19T07:00:14;8.30;;;2.15;;
24743;SDS011;12844;52.110;5.548;2023-11-19T07:02:40;8.88;;;2.08;;
24743;SDS011;12844;52.110;5.548;2023-11-19T07:05:06;8.57;;;2.22;;
24743;SDS011;12844;52.110;5.548;2023-11-19T07:07:33;7.00;;;2.45;;
24743;SDS011;12844;52.110;5.548;2023-11-19T07:09:58;9.55;;;2.67;;
24743;SDS011;12844;52.110;5.548;2023-11-19T07:12:24;8.48;;;2.25;;
24743;SDS011;12844;52.110;5.548;2023-11-19T07:14:52;7.50;;;2.05;;
24743;SDS011;12844;52.110;5.548;2023-11-19T07:17:20;10.18;;;2.30;;
24743;SDS011;12844;52.110;5.548;2023-11-19T07:19:46;8.35;;;2.20;;
24743;SDS011;12844;52.110;5.548;2023-11-19T07:22:12;7.97;;;1.92;;
24743;SDS011;12844;52.110;5.548;2023-11-19T07:24:39;7.43;;;2.00;;
24743;SDS011;12844;52.110;5.548;2023-11-19T07:27:05;7.03;;;2.00;;
24743;SDS011;12844;52.110;5.548;2023-11-19T07:29:31;8.05;;;2.10;;
24743;SDS011;12844;52.110;5.548;2023-11-19T07:31:57;8.55;;;2.67;;
24743;SDS011;12844;52.110;5.548;2023-11-19T07:34:23;8.85;;;2.28;;
24743;SDS011;12844;52.110;5.548;2023-11-19T07:36:49;8.88;;;1.92;;
24743;SDS011;12844;52.110;5.548;2023-11-19T07:39:15;8.50;;;2.40;;
24743;SDS011;12844;52.110;5.548;2023-11-19T07:41:41;8.07;;;2.58;;
24743;SDS011;12844;52.110;5.548;2023-11-19T07:44:06;12.98;;;2.15;;
24743;SDS011;12844;52.110;5.548;2023-11-19T07:46:32;7.90;;;2.10;;
24743;SDS011;12844;52.110;5.548;2023-11-19T07:48:58;6.90;;;2.33;;
24743;SDS011;12844;52.110;5.548;2023-11-19T07:51:23;9.90;;;2.35;;
24743;SDS011;12844;52.110;5.548;2023-11-19T07:53:49;8.00;;;1.98;;
24743;SDS011;12844;52.110;5.548;2023-11-19T07:56:14;8.43;;;2.35;;
24743;SDS011;12844;52.110;5.548;2023-11-19T07:58:40;8.85;;;2.22;;
24743;SDS011;12844;52.110;5.548;2023-11-19T08:01:06;8.25;;;2.47;;
24743;SDS011;12844;52.110;5.548;2023-11-19T08:03:32;7.88;;;2.30;;
24743;SDS011;12844;52.110;5.548;2023-11-19T08:05:59;9.10;;;2.13;;
24743;SDS011;12844;52.110;5.548;2023-11-19T08:08:26;7.88;;;2.10;;
24743;SDS011;12844;52.110;5.548;2023-11-19T08:10:51;9.25;;;2.70;;
24743;SDS011;12844;52.110;5.548;2023-11-19T08:13:18;7.15;;;1.83;;
24743;SDS011;12844;52.110;5.548;2023-11-19T08:15:45;7.50;;;2.05;;
24743;SDS011;12844;52.110;5.548;2023-11-19T08:18:11;11.25;;;2.60;;
24743;SDS011;12844;52.110;5.548;2023-11-19T08:20:36;10.30;;;2.33;;
24743;SDS011;12844;52.110;5.548;2023-11-19T08:23:02;7.95;;;2.08;;
24743;SDS011;12844;52.110;5.548;2023-11-19T08:25:31;9.00;;;2.80;;
24743;SDS011;12844;52.110;5.548;2023-11-19T08:27:58;10.50;;;2.33;;
24743;SDS011;12844;52.110;5.548;2023-11-19T08:30:24;9.85;;;2.53;;
24743;SDS011;12844;52.110;5.548;2023-11-19T08:47:56;9.60;;;2.23;;
24743;SDS011;12844;52.110;5.548;2023-11-19T08:50:22;7.22;;;2.20;;
24743;SDS011;12844;52.110;5.548;2023-11-19T08:52:48;9.18;;;2.17;;
24743;SDS011;12844;52.110;5.548;2023-11-19T08:55:14;7.88;;;2.17;;
24743;SDS011;12844;52.110;5.548;2023-11-19T08:57:40;8.02;;;2.25;;
24743;SDS011;12844;52.110;5.548;2023-11-19T09:00:05;8.90;;;2.40;;
24743;SDS011;12844;52.110;5.548;2023-11-19T09:02:37;7.93;;;2.40;;
24743;SDS011;12844;52.110;5.548;2023-11-19T09:05:03;10.73;;;2.67;;
24743;SDS011;12844;52.110;5.548;2023-11-19T09:07:30;7.72;;;2.13;;
24743;SDS011;12844;52.110;5.548;2023-11-19T09:09:56;9.18;;;2.47;;
24743;SDS011;12844;52.110;5.548;2023-11-19T09:12:22;7.78;;;2.50;;
24743;SDS011;12844;52.110;5.548;2023-11-19T09:14:47;9.13;;;2.40;;
24743;SDS011;12844;52.110;5.548;2023-11-19T09:17:14;7.32;;;2.08;;
24743;SDS011;12844;52.110;5.548;2023-11-19T09:19:41;9.60;;;2.40;;
24743;SDS011;12844;52.110;5.548;2023-11-19T09:22:06;8.75;;;2.38;;
24743;SDS011;12844;52.110;5.548;2023-11-19T09:24:32;9.95;;;2.30;;
24743;SDS011;12844;52.110;5.548;2023-11-19T09:26:58;11.23;;;2.40;;
24743;SDS011;12844;52.110;5.548;2023-11-19T09:29:23;9.57;;;2.35;;
24743;SDS011;12844;52.110;5.548;2023-11-19T09:31:49;8.35;;;2.25;;
24743;SDS011;12844;52.110;5.548;2023-11-19T09:34:14;10.02;;;2.55;;
24743;SDS011;12844;52.110;5.548;2023-11-19T09:36:40;10.50;;;2.35;;
24743;SDS011;12844;52.110;5.548;2023-11-19T09:39:09;9.75;;;1.95;;
24743;SDS011;12844;52.110;5.548;2023-11-19T09:41:35;10.48;;;2.28;;
24743;SDS011;12844;52.110;5.548;2023-11-19T09:44:01;10.98;;;2.38;;
24743;SDS011;12844;52.110;5.548;2023-11-19T09:46:26;8.93;;;2.50;;
24743;SDS011;12844;52.110;5.548;2023-11-19T09:48:53;11.32;;;2.60;;
24743;SDS011;12844;52.110;5.548;2023-11-19T09:51:19;10.65;;;2.13;;
24743;SDS011;12844;52.110;5.548;2023-11-19T09:53:45;9.95;;;2.30;;
24743;SDS011;12844;52.110;5.548;2023-11-19T09:56:11;8.98;;;2.45;;
24743;SDS011;12844;52.110;5.548;2023-11-19T09:58:37;10.40;;;2.70;;
24743;SDS011;12844;52.110;5.548;2023-11-19T10:01:03;8.80;;;2.10;;
24743;SDS011;12844;52.110;5.548;2023-11-19T10:03:32;8.25;;;2.45;;
24743;SDS011;12844;52.110;5.548;2023-11-19T10:06:03;9.13;;;2.28;;
24743;SDS011;12844;52.110;5.548;2023-11-19T10:08:29;8.82;;;2.25;;
24743;SDS011;12844;52.110;5.548;2023-11-19T10:10:55;10.68;;;2.60;;
24743;SDS011;12844;52.110;5.548;2023-11-19T10:13:25;7.90;;;2.28;;
24743;SDS011;12844;52.110;5.548;2023-11-19T10:15:52;11.60;;;2.38;;
24743;SDS011;12844;52.110;5.548;2023-11-19T10:18:18;7.60;;;1.95;;
24743;SDS011;12844;52.110;5.548;2023-11-19T10:20:48;11.20;;;2.70;;
24743;SDS011;12844;52.110;5.548;2023-11-19T10:23:14;7.90;;;2.60;;
24743;SDS011;12844;52.110;5.548;2023-11-19T10:25:40;9.55;;;1.90;;
24743;SDS011;12844;52.110;5.548;2023-11-19T10:28:05;9.32;;;2.50;;
24743;SDS011;12844;52.110;5.548;2023-11-19T10:30:31;9.68;;;2.47;;
24743;SDS011;12844;52.110;5.548;2023-11-19T10:33:06;10.77;;;2.40;;
24743;SDS011;12844;52.110;5.548;2023-11-19T10:38:24;7.75;;;2.15;;
24743;SDS011;12844;52.110;5.548;2023-11-19T10:40:51;11.07;;;2.40;;
24743;SDS011;12844;52.110;5.548;2023-11-19T10:43:17;7.95;;;2.22;;
24743;SDS011;12844;52.110;5.548;2023-11-19T10:45:48;8.10;;;1.83;;
24743;SDS011;12844;52.110;5.548;2023-11-19T10:48:14;10.23;;;2.53;;
24743;SDS011;12844;52.110;5.548;2023-11-19T10:50:42;10.35;;;2.05;;
24743;SDS011;12844;52.110;5.548;2023-11-19T10:53:09;9.57;;;2.30;;
24743;SDS011;12844;52.110;5.548;2023-11-19T10:55:38;8.35;;;2.10;;
24743;SDS011;12844;52.110;5.548;2023-11-19T10:58:05;9.25;;;2.40;;
24743;SDS011;12844;52.110;5.548;2023-11-19T11:03:18;8.57;;;1.88;;
24743;SDS011;12844;52.110;5.548;2023-11-19T11:05:49;7.03;;;1.95;;
24743;SDS011;12844;52.110;5.548;2023-11-19T11:08:16;8.57;;;2.05;;
24743;SDS011;12844;52.110;5.548;2023-11-19T11:10:43;10.77;;;2.50;;
24743;SDS011;12844;52.110;5.548;2023-11-19T11:13:10;7.18;;;2.10;;
24743;SDS011;12844;52.110;5.548;2023-11-19T11:15:38;9.18;;;2.03;;
24743;SDS011;12844;52.110;5.548;2023-11-19T11:18:07;10.13;;;2.00;;
24743;SDS011;12844;52.110;5.548;2023-11-19T11:20:34;7.95;;;2.22;;
24743;SDS011;12844;52.110;5.548;2023-11-19T11:29:14;7.35;;;2.08;;
24743;SDS011;12844;52.110;5.548;2023-11-19T11:34:48;9.77;;;2.33;;
24743;SDS011;12844;52.110;5.548;2023-11-19T11:37:26;9.95;;;2.28;;
24743;SDS011;12844;52.110;5.548;2023-11-19T11:39:56;8.70;;;2.20;;
24743;SDS011;12844;52.110;5.548;2023-11-19T11:44:59;8.18;;;2.15;;
24743;SDS011;12844;52.110;5.548;2023-11-19T11:50:14;6.97;;;2.03;;
24743;SDS011;12844;52.110;5.548;2023-11-19T11:55:26;8.05;;;2.22;;
24743;SDS011;12844;52.110;5.548;2023-11-19T11:58:05;7.78;;;2.13;;
24743;SDS011;12844;52.110;5.548;2023-11-19T12:00:31;7.78;;;1.95;;
24743;SDS011;12844;52.110;5.548;2023-11-19T12:03:02;8.85;;;2.58;;
24743;SDS011;12844;52.110;5.548;2023-11-19T12:05:30;7.32;;;1.90;;
24743;SDS011;12844;52.110;5.548;2023-11-19T12:10:30;8.30;;;2.30;;
24743;SDS011;12844;52.110;5.548;2023-11-19T12:13:00;8.23;;;2.30;;
24743;SDS011;12844;52.110;5.548;2023-11-19T12:15:26;10.30;;;2.53;;
24743;SDS011;12844;52.110;5.548;2023-11-19T12:17:53;9.40;;;1.98;;
24743;SDS011;12844;52.110;5.548;2023-11-19T12:20:20;11.07;;;2.50;;
24743;SDS011;12844;52.110;5.548;2023-11-19T12:22:47;9.65;;;2.55;;
24743;SDS011;12844;52.110;5.548;2023-11-19T12:25:14;6.80;;;2.20;;
24743;SDS011;12844;52.110;5.548;2023-11-19T12:27:50;7.50;;;2.00;;
24743;SDS011;12844;52.110;5.548;2023-11-19T12:30:26;9.73;;;2.25;;
24743;SDS011;12844;52.110;5.548;2023-11-19T12:32:54;6.43;;;1.73;;
24743;SDS011;12844;52.110;5.548;2023-11-19T12:35:19;7.47;;;1.83;;
24743;SDS011;12844;52.110;5.548;2023-11-19T12:37:46;7.88;;;2.08;;
24743;SDS011;12844;52.110;5.548;2023-11-19T12:40:17;7.97;;;2.08;;
24743;SDS011;12844;52.110;5.548;2023-11-19T12:42:47;8.05;;;2.15;;
24743;SDS011;12844;52.110;5.548;2023-11-19T12:45:13;7.85;;;2.08;;
24743;SDS011;12844;52.110;5.548;2023-11-19T12:47:39;6.82;;;1.80;;
24743;SDS011;12844;52.110;5.548;2023-11-19T12:50:06;8.27;;;2.25;;
24743;SDS011;12844;52.110;5.548;2023-11-19T12:52:33;6.40;;;1.80;;
24743;SDS011;12844;52.110;5.548;2023-11-19T12:55:06;9.38;;;2.20;;
24743;SDS011;12844;52.110;5.548;2023-11-19T12:57:55;9.23;;;2.08;;
24743;SDS011;12844;52.110;5.548;2023-11-19T13:00:21;8.98;;;2.22;;
24743;SDS011;12844;52.110;5.548;2023-11-19T13:02:49;7.05;;;1.88;;
24743;SDS011;12844;52.110;5.548;2023-11-19T13:07:47;7.05;;;1.65;;
24743;SDS011;12844;52.110;5.548;2023-11-19T13:10:13;7.38;;;1.55;;
24743;SDS011;12844;52.110;5.548;2023-11-19T13:12:40;9.85;;;2.40;;
24743;SDS011;12844;52.110;5.548;2023-11-19T13:15:06;8.57;;;1.98;;
24743;SDS011;12844;52.110;5.548;2023-11-19T13:17:31;7.53;;;2.08;;
24743;SDS011;12844;52.110;5.548;2023-11-19T13:19:57;8.10;;;2.20;;
24743;SDS011;12844;52.110;5.548;2023-11-19T13:22:22;7.05;;;1.90;;
24743;SDS011;12844;52.110;5.548;2023-11-19T13:24:48;9.23;;;2.13;;
24743;SDS011;12844;52.110;5.548;2023-11-19T13:27:14;8.95;;;1.70;;
24743;SDS011;12844;52.110;5.548;2023-11-19T13:29:39;7.25;;;2.30;;
24743;SDS011;12844;52.110;5.548;2023-11-19T13:32:05;8.80;;;2.30;;
24743;SDS011;12844;52.110;5.548;2023-11-19T13:34:31;8.13;;;2.22;;
24743;SDS011;12844;52.110;5.548;2023-11-19T13:36:56;9.25;;;2.47;;
24743;SDS011;12844;52.110;5.548;2023-11-19T13:39:22;7.13;;;1.98;;
24743;SDS011;12844;52.110;5.548;2023-11-19T13:41:48;8.38;;;1.80;;
24743;SDS011;12844;52.110;5.548;2023-11-19T13:44:15;7.00;;;1.98;;
24743;SDS011;12844;52.110;5.548;2023-11-19T13:46:43;8.85;;;2.33;;
24743;SDS011;12844;52.110;5.548;2023-11-19T13:49:09;9.40;;;1.98;;
24743;SDS011;12844;52.110;5.548;2023-11-19T13:51:35;9.25;;;2.53;;
24743;SDS011;12844;52.110;5.548;2023-11-19T13:54:01;6.13;;;2.10;;
24743;SDS011;12844;52.110;5.548;2023-11-19T13:56:26;7.47;;;2.25;;
24743;SDS011;12844;52.110;5.548;2023-11-19T13:58:52;8.30;;;2.13;;
24743;SDS011;12844;52.110;5.548;2023-11-19T14:01:18;7.63;;;2.08;;
24743;SDS011;12844;52.110;5.548;2023-11-19T14:03:44;6.00;;;2.00;;
24743;SDS011;12844;52.110;5.548;2023-11-19T14:06:10;6.10;;;1.77;;
24743;SDS011;12844;52.110;5.548;2023-11-19T14:08:36;6.82;;;1.70;;
24743;SDS011;12844;52.110;5.548;2023-11-19T14:11:02;9.07;;;2.38;;
24743;SDS011;12844;52.110;5.548;2023-11-19T14:13:28;7.90;;;1.98;;
24743;SDS011;12844;52.110;5.548;2023-11-19T14:15:54;8.30;;;1.95;;
24743;SDS011;12844;52.110;5.548;2023-11-19T14:18:19;7.10;;;1.88;;
24743;SDS011;12844;52.110;5.548;2023-11-19T14:20:45;4.88;;;1.95;;
24743;SDS011;12844;52.110;5.548;2023-11-19T14:23:10;7.32;;;1.85;;
24743;SDS011;12844;52.110;5.548;2023-11-19T14:25:36;8.90;;;2.33;;
24743;SDS011;12844;52.110;5.548;2023-11-19T14:28:01;7.28;;;1.70;;
24743;SDS011;12844;52.110;5.548;2023-11-19T14:30:27;8.75;;;2.58;;
24743;SDS011;12844;52.110;5.548;2023-11-19T14:32:53;6.38;;;1.90;;
24743;SDS011;12844;52.110;5.548;2023-11-19T14:35:18;9.15;;;2.03;;
24743;SDS011;12844;52.110;5.548;2023-11-19T14:37:45;6.50;;;1.90;;
24743;SDS011;12844;52.110;5.548;2023-11-19T14:40:11;7.72;;;2.70;;
24743;SDS011;12844;52.110;5.548;2023-11-19T14:42:37;7.00;;;2.08;;
24743;SDS011;12844;52.110;5.548;2023-11-19T14:45:04;9.00;;;2.10;;
24743;SDS011;12844;52.110;5.548;2023-11-19T14:47:30;7.88;;;2.10;;
24743;SDS011;12844;52.110;5.548;2023-11-19T14:49:55;6.78;;;1.55;;
24743;SDS011;12844;52.110;5.548;2023-11-19T14:52:21;4.78;;;1.83;;
24743;SDS011;12844;52.110;5.548;2023-11-19T14:54:46;6.88;;;1.75;;
24743;SDS011;12844;52.110;5.548;2023-11-19T14:57:12;6.43;;;1.73;;
24743;SDS011;12844;52.110;5.548;2023-11-19T14:59:38;8.77;;;2.03;;
24743;SDS011;12844;52.110;5.548;2023-11-19T15:02:04;7.60;;;2.03;;
24743;SDS011;12844;52.110;5.548;2023-11-19T15:04:33;6.55;;;1.70;;
24743;SDS011;12844;52.110;5.548;2023-11-19T15:06:59;6.07;;;1.70;;
24743;SDS011;12844;52.110;5.548;2023-11-19T15:09:25;6.60;;;2.05;;
24743;SDS011;12844;52.110;5.548;2023-11-19T15:11:54;7.00;;;1.55;;
24743;SDS011;12844;52.110;5.548;2023-11-19T15:14:20;7.22;;;1.90;;
24743;SDS011;12844;52.110;5.548;2023-11-19T15:16:46;7.70;;;2.30;;
24743;SDS011;12844;52.110;5.548;2023-11-19T15:19:12;6.68;;;2.00;;
24743;SDS011;12844;52.110;5.548;2023-11-19T15:21:39;10.77;;;2.08;;
24743;SDS011;12844;52.110;5.548;2023-11-19T15:24:05;7.57;;;2.15;;